createdAt,value
2018-09-26T00:00:04.036Z,1.40
2018-09-26T00:02:41.301Z,1.33
2018-09-26T00:05:10.265Z,1.47
2018-09-26T00:07:40.203Z,1.40
2018-09-26T00:10:09.021Z,1.43
2018-09-26T00:12:37.920Z,1.30
2018-09-26T00:15:06.835Z,1.30
2018-09-26T00:17:35.729Z,1.60
2018-09-26T00:20:04.795Z,1.30
2018-09-26T00:22:33.818Z,1.50
2018-09-26T00:25:02.577Z,1.63
2018-09-26T00:27:31.367Z,1.80
2018-09-26T00:30:00.201Z,1.63
2018-09-26T00:32:29.005Z,2.00
2018-09-26T00:34:57.868Z,1.60
2018-09-26T00:37:26.709Z,1.40
2018-09-26T00:39:56.249Z,1.60
2018-09-26T00:42:25.083Z,1.67
2018-09-26T00:44:53.941Z,2.13
2018-09-26T00:47:22.802Z,1.93
2018-09-26T00:49:51.765Z,2.80
2018-09-26T00:52:20.607Z,2.00
2018-09-26T00:54:49.518Z,2.20
2018-09-26T00:57:18.365Z,2.07
2018-09-26T00:59:47.256Z,2.43
2018-09-26T01:02:16.082Z,1.83
2018-09-26T01:04:45.075Z,2.30
2018-09-26T01:07:13.829Z,2.20
2018-09-26T01:09:42.745Z,2.37
2018-09-26T01:12:11.556Z,1.90
2018-09-26T01:14:40.342Z,2.03
2018-09-26T01:17:09.239Z,1.93
2018-09-26T01:19:38.298Z,1.33
2018-09-26T01:22:07.077Z,1.37
2018-09-26T01:24:35.897Z,1.50
2018-09-26T01:27:04.744Z,1.60
2018-09-26T01:29:33.731Z,2.07
2018-09-26T01:32:02.518Z,2.27
2018-09-26T01:34:31.463Z,2.10
2018-09-26T01:37:00.409Z,2.10
2018-09-26T01:39:29.318Z,1.83
2018-09-26T01:41:58.106Z,1.73
2018-09-26T01:44:26.860Z,1.73
2018-09-26T01:46:55.770Z,1.80
2018-09-26T01:49:24.531Z,1.70
2018-09-26T01:51:53.377Z,2.03
2018-09-26T01:54:22.278Z,1.93
2018-09-26T01:56:51.073Z,1.60
2018-09-26T01:59:19.933Z,1.60
2018-09-26T02:01:48.772Z,1.70
2018-09-26T02:04:17.567Z,1.70
2018-09-26T02:06:46.389Z,1.97
2018-09-26T02:09:15.326Z,1.67
2018-09-26T02:11:44.629Z,1.87
2018-09-26T02:14:13.416Z,1.97
2018-09-26T02:16:43.657Z,2.10
2018-09-26T02:19:13.113Z,2.30
2018-09-26T02:21:41.942Z,2.17
2018-09-26T02:24:11.037Z,1.97
2018-09-26T02:26:40.859Z,2.43
2018-09-26T02:29:09.634Z,2.30
2018-09-26T02:31:38.628Z,2.30
2018-09-26T02:34:07.521Z,2.10
2018-09-26T02:36:36.421Z,1.93
2018-09-26T02:39:06.854Z,2.80
2018-09-26T02:41:37.366Z,2.67
2018-09-26T02:44:06.390Z,2.43
2018-09-26T02:46:35.194Z,2.03
2018-09-26T02:49:06.054Z,2.30
2018-09-26T02:51:36.494Z,2.20
2018-09-26T02:54:06.081Z,2.50
2018-09-26T02:56:34.876Z,2.20
2018-09-26T02:59:03.720Z,2.47
2018-09-26T03:01:32.846Z,2.50
2018-09-26T03:04:01.617Z,2.60
2018-09-26T03:06:30.424Z,2.60
2018-09-26T03:08:59.290Z,2.60
2018-09-26T03:11:28.060Z,2.60
2018-09-26T03:13:56.849Z,2.80
2018-09-26T03:16:26.070Z,2.40
2018-09-26T03:18:54.909Z,2.67
2018-09-26T03:21:23.673Z,2.50
2018-09-26T03:23:52.818Z,2.20
2018-09-26T03:26:22.043Z,2.30
2018-09-26T03:28:50.908Z,1.93
2018-09-26T03:31:20.038Z,1.93
2018-09-26T03:33:48.929Z,2.20
2018-09-26T03:36:17.772Z,1.90
2018-09-26T03:38:46.659Z,2.20
2018-09-26T03:41:15.430Z,2.60
2018-09-26T03:43:44.197Z,2.30
2018-09-26T03:46:14.855Z,2.60
2018-09-26T03:48:43.694Z,2.70
2018-09-26T03:51:12.510Z,2.60
2018-09-26T03:53:41.664Z,2.67
2018-09-26T03:56:10.424Z,2.73
2018-09-26T03:58:39.206Z,2.77
2018-09-26T04:01:08.644Z,2.33
2018-09-26T04:03:37.438Z,3.40
2018-09-26T04:06:06.310Z,2.40
2018-09-26T04:08:35.101Z,2.87
2018-09-26T04:11:04.038Z,3.10
2018-09-26T04:13:32.900Z,2.60
2018-09-26T04:16:01.694Z,2.40
2018-09-26T04:18:30.456Z,1.90
2018-09-26T04:20:59.229Z,1.77
2018-09-26T04:23:28.014Z,1.70
2018-09-26T04:25:56.317Z,2.10
2018-09-26T04:28:24.629Z,2.20
2018-09-26T04:30:52.954Z,2.00
2018-09-26T04:33:21.834Z,2.87
2018-09-26T04:35:49.930Z,2.00
2018-09-26T04:38:18.198Z,2.23
2018-09-26T04:40:46.668Z,1.90
2018-09-26T04:43:15.011Z,2.40
2018-09-26T04:45:43.273Z,2.50
2018-09-26T04:48:11.532Z,2.43
2018-09-26T04:50:39.865Z,2.50
2018-09-26T04:53:08.342Z,2.00
2018-09-26T04:55:36.849Z,2.00
2018-09-26T04:58:05.187Z,2.37
2018-09-26T05:00:33.392Z,2.00
2018-09-26T05:03:01.811Z,2.23
2018-09-26T05:05:30.173Z,2.50
2018-09-26T05:07:58.470Z,3.33
2018-09-26T05:10:26.765Z,3.33
2018-09-26T05:12:55.079Z,3.23
2018-09-26T05:15:23.713Z,2.97
2018-09-26T05:17:51.990Z,3.03
2018-09-26T05:20:20.325Z,2.80
2018-09-26T05:22:48.635Z,2.50
2018-09-26T05:25:16.960Z,2.70
2018-09-26T05:27:45.257Z,2.73
2018-09-26T05:30:13.684Z,2.27
2018-09-26T05:32:41.965Z,2.30
2018-09-26T05:35:10.255Z,2.07
2018-09-26T05:37:38.841Z,2.10
2018-09-26T05:40:07.229Z,2.10
2018-09-26T05:42:35.578Z,2.33
2018-09-26T05:45:03.961Z,1.93
2018-09-26T05:47:32.284Z,2.10
2018-09-26T05:50:00.920Z,2.40
2018-09-26T05:52:29.187Z,2.40
2018-09-26T05:54:57.735Z,2.00
2018-09-26T05:57:25.993Z,2.30
2018-09-26T05:59:54.254Z,1.90
2018-09-26T06:02:22.560Z,3.53
2018-09-26T06:04:51.529Z,2.13
2018-09-26T06:07:19.870Z,2.63
2018-09-26T06:12:22.935Z,2.83
2018-09-26T06:14:51.210Z,3.10
2018-09-26T06:17:19.465Z,2.40
2018-09-26T06:19:49.681Z,2.97
2018-09-26T06:22:18.044Z,3.17
2018-09-26T06:24:46.609Z,2.80
2018-09-26T06:27:15.008Z,2.67
2018-09-26T06:29:44.164Z,2.70
2018-09-26T06:32:12.764Z,2.63
2018-09-26T06:34:41.286Z,4.53
2018-09-26T06:37:09.637Z,5.13
2018-09-26T06:39:37.981Z,3.40
2018-09-26T06:42:06.544Z,2.53
2018-09-26T06:44:41.621Z,3.00
2018-09-26T06:47:10.028Z,2.60
2018-09-26T06:49:38.254Z,2.87
2018-09-26T06:52:06.520Z,3.80
2018-09-26T06:54:34.838Z,3.80
2018-09-26T06:57:03.085Z,3.43
2018-09-26T06:59:31.399Z,3.07
2018-09-26T07:01:59.866Z,3.97
2018-09-26T07:04:28.159Z,2.77
2018-09-26T07:06:56.515Z,3.40
2018-09-26T07:09:24.813Z,4.13
2018-09-26T07:11:53.314Z,5.13
2018-09-26T07:14:22.177Z,2.70
2018-09-26T07:16:50.477Z,2.90
2018-09-26T07:19:18.781Z,3.60
2018-09-26T07:21:47.338Z,2.87
2018-09-26T07:24:15.740Z,2.00
2018-09-26T07:26:44.064Z,2.33
2018-09-26T07:29:12.326Z,2.20
2018-09-26T07:31:40.661Z,2.50
2018-09-26T07:34:08.992Z,2.20
2018-09-26T07:36:37.538Z,2.67
2018-09-26T07:39:08.714Z,3.73
2018-09-26T07:41:37.208Z,3.00
2018-09-26T07:44:05.477Z,2.67
2018-09-26T07:46:33.768Z,2.20
2018-09-26T07:49:02.136Z,3.10
2018-09-26T07:51:30.614Z,2.53
2018-09-26T07:53:58.932Z,2.20
2018-09-26T07:56:27.302Z,2.23
2018-09-26T07:58:56.001Z,2.70
2018-09-26T08:01:24.217Z,2.90
2018-09-26T08:03:52.886Z,2.20
2018-09-26T08:06:21.134Z,1.93
2018-09-26T08:08:49.517Z,2.60
2018-09-26T08:11:18.017Z,2.33
2018-09-26T08:13:46.457Z,2.20
2018-09-26T08:16:16.088Z,2.40
2018-09-26T08:18:44.590Z,2.73
2018-09-26T08:21:12.850Z,2.93
2018-09-26T08:23:42.067Z,2.17
2018-09-26T08:26:11.297Z,3.30
2018-09-26T08:28:39.550Z,2.90
2018-09-26T08:31:08.106Z,2.73
2018-09-26T08:33:37.255Z,2.17
2018-09-26T08:36:05.518Z,1.65
2018-09-26T08:38:33.910Z,1.62
2018-09-26T08:41:02.309Z,1.77
2018-09-26T08:43:30.620Z,2.10
2018-09-26T08:45:59.057Z,1.67
2018-09-26T08:48:27.713Z,1.85
2018-09-26T08:50:56.042Z,1.85
2018-09-26T08:53:24.350Z,1.50
2018-09-26T08:55:52.686Z,1.77
2018-09-26T08:58:20.985Z,1.70
2018-09-26T09:00:53.470Z,1.50
2018-09-26T09:03:21.745Z,1.87
2018-09-26T09:05:50.555Z,1.77
2018-09-26T09:08:19.737Z,1.98
2018-09-26T09:10:47.990Z,1.20
2018-09-26T09:13:16.548Z,1.52
2018-09-26T09:15:44.849Z,1.60
2018-09-26T09:18:13.395Z,2.00
2018-09-26T09:20:41.682Z,1.90
2018-09-26T09:23:09.958Z,1.70
2018-09-26T09:25:38.502Z,1.60
2018-09-26T09:28:06.886Z,8.33
2018-09-26T09:30:35.978Z,1.57
2018-09-26T09:33:04.535Z,2.02
2018-09-26T09:35:32.955Z,1.50
2018-09-26T09:38:01.386Z,1.70
2018-09-26T09:40:29.790Z,1.87
2018-09-26T09:42:58.066Z,1.70
2018-09-26T09:45:26.343Z,1.70
2018-09-26T09:47:54.605Z,1.40
2018-09-26T09:50:23.186Z,1.40
2018-09-26T09:52:51.505Z,1.82
2018-09-26T09:55:20.072Z,1.25
2018-09-26T09:57:48.689Z,1.30
2018-09-26T10:00:17.290Z,1.42
2018-09-26T10:02:45.578Z,1.57
2018-09-26T10:05:14.017Z,1.95
2018-09-26T10:07:42.458Z,1.45
2018-09-26T10:10:10.822Z,1.70
2018-09-26T10:12:39.265Z,1.32
2018-09-26T10:15:08.290Z,2.00
2018-09-26T10:17:37.407Z,1.80
2018-09-26T10:20:06.598Z,1.45
2018-09-26T10:22:35.365Z,1.52
2018-09-26T10:25:06.814Z,1.82
2018-09-26T10:27:35.619Z,1.50
2018-09-26T10:30:05.318Z,1.77
2018-09-26T10:32:34.131Z,1.50
2018-09-26T10:35:03.128Z,1.55
2018-09-26T10:37:32.165Z,1.60
2018-09-26T10:40:01.062Z,1.30
2018-09-26T10:42:29.890Z,1.42
2018-09-26T10:44:58.862Z,1.60
2018-09-26T10:47:27.868Z,1.45
2018-09-26T10:49:56.682Z,1.50
2018-09-26T10:52:26.076Z,1.40
2018-09-26T10:54:54.993Z,1.40
2018-09-26T10:57:23.739Z,1.27
2018-09-26T10:59:52.585Z,1.70
2018-09-26T11:02:21.427Z,1.40
2018-09-26T11:04:50.290Z,1.55
2018-09-26T11:07:19.096Z,1.62
2018-09-26T11:09:48.110Z,1.20
2018-09-26T11:12:16.931Z,1.20
2018-09-26T11:14:45.719Z,1.45
2018-09-26T11:17:14.503Z,1.30
2018-09-26T11:19:43.329Z,1.42
2018-09-26T11:22:12.425Z,1.17
2018-09-26T11:24:41.331Z,1.45
2018-09-26T11:27:10.393Z,1.35
2018-09-26T11:29:39.216Z,1.25
2018-09-26T11:32:08.250Z,1.12
2018-09-26T11:34:37.016Z,1.30
2018-09-26T11:37:06.071Z,1.00
2018-09-26T11:39:34.859Z,1.00
2018-09-26T11:42:03.712Z,1.10
2018-09-26T11:44:32.736Z,1.07
2018-09-26T11:47:01.524Z,1.50
2018-09-26T11:49:30.298Z,1.30
2018-09-26T11:51:59.102Z,1.23
2018-09-26T11:54:28.418Z,1.30
2018-09-26T11:56:57.227Z,1.27
2018-09-26T11:59:26.309Z,1.00
2018-09-26T12:01:55.252Z,1.10
2018-09-26T12:04:24.171Z,1.10
2018-09-26T12:06:53.100Z,0.80
2018-09-26T12:09:22.045Z,1.00
2018-09-26T12:11:50.936Z,1.30
2018-09-26T12:14:19.665Z,1.17
2018-09-26T12:16:48.551Z,0.93
2018-09-26T12:19:17.667Z,1.10
2018-09-26T12:21:46.434Z,1.20
2018-09-26T12:24:15.346Z,1.30
2018-09-26T12:26:44.117Z,0.90
2018-09-26T12:29:12.940Z,0.83
2018-09-26T12:31:41.685Z,1.10
2018-09-26T12:34:10.628Z,1.00
2018-09-26T12:36:39.767Z,1.10
2018-09-26T12:39:09.341Z,1.00
2018-09-26T12:41:38.100Z,0.90
2018-09-26T12:44:06.906Z,1.13
2018-09-26T12:46:38.775Z,0.90
2018-09-26T12:49:07.586Z,1.00
2018-09-26T12:51:36.462Z,0.90
2018-09-26T12:54:05.713Z,0.97
2018-09-26T12:56:34.282Z,1.00
2018-09-26T12:59:03.523Z,1.10
2018-09-26T13:01:32.379Z,1.27
2018-09-26T13:04:01.164Z,0.80
2018-09-26T13:06:29.995Z,1.23
2018-09-26T13:08:58.890Z,1.00
2018-09-26T13:11:27.755Z,1.10
2018-09-26T13:13:56.563Z,1.13
2018-09-26T13:16:25.583Z,1.00
2018-09-26T13:18:54.591Z,1.00
2018-09-26T13:21:23.410Z,0.97
2018-09-26T13:23:52.224Z,1.00
2018-09-26T13:26:21.360Z,1.03
2018-09-26T13:28:50.115Z,0.90
2018-09-26T13:31:18.923Z,0.90
2018-09-26T13:33:47.902Z,0.90
2018-09-26T13:36:16.761Z,0.93
2018-09-26T13:38:46.431Z,1.13
2018-09-26T13:41:15.278Z,1.00
2018-09-26T13:43:44.095Z,0.70
2018-09-26T13:46:12.947Z,0.90
2018-09-26T13:48:41.731Z,0.93
2018-09-26T13:51:10.595Z,0.70
2018-09-26T13:53:39.375Z,1.30
2018-09-26T13:56:08.263Z,1.17
2018-09-26T13:58:37.192Z,1.50
2018-09-26T14:01:06.247Z,1.20
2018-09-26T14:03:34.970Z,1.33
2018-09-26T14:06:03.789Z,1.00
2018-09-26T14:08:32.642Z,1.23
2018-09-26T14:11:01.442Z,1.00
2018-09-26T14:13:30.273Z,5.27
2018-09-26T14:15:59.035Z,1.80
2018-09-26T14:29:52.245Z,1.13
2018-09-26T14:33:33.776Z,1.10
2018-09-26T14:36:03.538Z,1.20
2018-09-26T14:38:33.403Z,1.10
2018-09-26T14:41:03.182Z,1.10
2018-09-26T14:43:33.048Z,1.17
2018-09-26T14:46:02.945Z,1.07
2018-09-26T14:48:32.711Z,1.00
2018-09-26T14:51:02.520Z,1.30
2018-09-26T14:53:32.281Z,0.97
2018-09-26T14:56:02.062Z,1.07
2018-09-26T14:58:31.902Z,4.23
2018-09-26T15:01:01.652Z,1.10
2018-09-26T15:03:31.606Z,1.10
2018-09-26T15:06:01.561Z,1.10
2018-09-26T15:08:31.540Z,1.17
2018-09-26T15:11:01.420Z,1.83
2018-09-26T15:13:31.273Z,7.03
2018-09-26T15:16:01.289Z,1.30
2018-09-26T15:18:31.143Z,1.20
2018-09-26T15:21:00.895Z,1.30
2018-09-26T15:23:30.962Z,1.00
2018-09-26T15:26:00.787Z,1.33
2018-09-26T15:28:30.978Z,1.33
2018-09-26T15:31:00.700Z,1.30
2018-09-26T15:33:30.618Z,1.50
2018-09-26T15:36:00.391Z,1.60
2018-09-26T15:38:30.898Z,1.20
2018-09-26T15:41:00.635Z,1.40
2018-09-26T15:43:30.628Z,1.33
2018-09-26T15:46:00.463Z,1.50
2018-09-26T15:48:30.407Z,1.40
2018-09-26T15:51:00.710Z,1.50
2018-09-26T15:53:30.518Z,1.63
2018-09-26T15:56:00.775Z,1.40
2018-09-26T15:58:30.868Z,1.07
2018-09-26T16:01:01.056Z,1.40
2018-09-26T16:03:30.823Z,3.70
2018-09-26T16:06:00.669Z,10.90
2018-09-26T16:08:30.540Z,25.23
2018-09-26T16:11:07.151Z,17.70
2018-09-26T16:13:37.019Z,18.97
2018-09-26T16:16:07.088Z,3.87
2018-09-26T16:18:37.018Z,4.53
2018-09-26T16:21:07.433Z,3.87
2018-09-26T16:23:37.976Z,2.50
2018-09-26T16:26:07.865Z,1.40
2018-09-26T16:28:37.615Z,3.60
2018-09-26T16:31:07.941Z,9.77
2018-09-26T16:33:37.742Z,4.03
2018-09-26T16:36:08.360Z,1.70
2018-09-26T16:38:38.511Z,1.90
2018-09-26T16:41:08.321Z,1.60
2018-09-26T16:43:38.329Z,1.57
2018-09-26T16:46:08.401Z,1.40
2018-09-26T16:48:38.158Z,1.40
2018-09-26T16:51:08.151Z,1.53
2018-09-26T16:53:38.362Z,1.60
2018-09-26T16:56:08.759Z,1.40
2018-09-26T16:58:38.516Z,1.40
2018-09-26T17:01:08.358Z,1.40
2018-09-26T17:03:38.542Z,1.60
2018-09-26T17:06:08.419Z,1.50
2018-09-26T17:08:38.211Z,1.47
2018-09-26T17:11:08.166Z,1.83
2018-09-26T17:13:38.031Z,1.50
2018-09-26T17:16:08.192Z,2.00
2018-09-26T17:18:38.576Z,1.43
2018-09-26T17:21:08.384Z,3.03
2018-09-26T17:23:38.439Z,3.27
2018-09-26T17:26:08.571Z,3.80
2018-09-26T17:28:38.414Z,3.17
2018-09-26T17:31:08.162Z,2.67
2018-09-26T17:33:38.097Z,3.10
2018-09-26T17:36:08.025Z,2.83
2018-09-26T17:38:37.936Z,2.20
2018-09-26T17:41:07.969Z,2.00
2018-09-26T17:43:37.958Z,2.20
2018-09-26T17:46:08.748Z,2.30
2018-09-26T17:48:39.078Z,2.60
2018-09-26T17:51:09.755Z,2.93
2018-09-26T17:53:39.570Z,2.73
2018-09-26T17:56:09.395Z,2.80
2018-09-26T17:58:39.403Z,2.93
2018-09-26T18:01:09.467Z,3.13
2018-09-26T18:03:39.812Z,2.83
2018-09-26T18:06:09.543Z,3.77
2018-09-26T18:08:39.522Z,3.33
2018-09-26T18:11:09.307Z,4.50
2018-09-26T18:13:39.116Z,3.87
2018-09-26T18:16:08.933Z,4.50
2018-09-26T18:18:38.763Z,4.13
2018-09-26T18:21:08.554Z,3.23
2018-09-26T18:23:38.887Z,2.57
2018-09-26T18:26:08.719Z,3.30
2018-09-26T18:28:38.687Z,3.23
2018-09-26T18:31:08.625Z,2.30
2018-09-26T18:33:38.590Z,2.40
2018-09-26T18:36:08.984Z,5.50
2018-09-26T18:38:38.942Z,5.27
2018-09-26T18:41:08.754Z,2.87
2018-09-26T18:43:38.713Z,7.20
2018-09-26T18:46:09.067Z,5.73
2018-09-26T18:48:39.250Z,3.27
2018-09-26T18:51:09.121Z,4.07
2018-09-26T18:53:39.627Z,4.20
2018-09-26T18:56:09.906Z,3.73
2018-09-26T18:58:39.751Z,3.60
2018-09-26T19:01:09.712Z,3.60
2018-09-26T19:03:39.526Z,3.30
2018-09-26T19:06:09.408Z,3.57
2018-09-26T19:08:39.239Z,3.07
2018-09-26T19:11:09.039Z,2.60
2018-09-26T19:13:38.877Z,2.53
2018-09-26T19:16:08.771Z,2.57
2018-09-26T19:18:38.559Z,4.40
2018-09-26T19:21:08.716Z,3.43
2018-09-26T19:23:38.484Z,2.70
2018-09-26T19:26:08.630Z,2.80
2018-09-26T19:28:38.379Z,3.30
2018-09-26T19:31:08.783Z,3.97
2018-09-26T19:33:38.814Z,3.60
2018-09-26T19:36:08.915Z,3.40
2018-09-26T19:38:38.924Z,3.67
2018-09-26T19:41:08.675Z,4.33
2018-09-26T19:43:38.444Z,4.00
2018-09-26T19:46:08.378Z,3.97
2018-09-26T19:48:38.147Z,4.90
2018-09-26T19:51:07.990Z,4.30
2018-09-26T19:53:37.690Z,3.53
2018-09-26T19:56:07.547Z,3.90
2018-09-26T19:58:37.284Z,3.20
2018-09-26T20:01:07.330Z,3.60
2018-09-26T20:03:37.341Z,2.77
2018-09-26T20:06:07.122Z,3.13
2018-09-26T20:08:37.287Z,2.67
2018-09-26T20:11:07.142Z,2.50
2018-09-26T20:13:36.906Z,2.53
2018-09-26T20:16:06.807Z,2.73
2018-09-26T20:18:37.002Z,3.00
2018-09-26T20:21:07.001Z,2.70
2018-09-26T20:23:37.450Z,3.10
2018-09-26T20:26:07.299Z,3.03
2018-09-26T20:28:37.162Z,4.10
2018-09-26T20:31:07.103Z,3.80
2018-09-26T20:33:36.883Z,3.67
2018-09-26T20:36:06.623Z,4.00
2018-09-26T20:38:36.406Z,3.63
2018-09-26T20:41:06.594Z,3.83
2018-09-26T20:43:36.331Z,3.97
2018-09-26T20:46:06.788Z,3.43
2018-09-26T20:48:36.588Z,3.53
2018-09-26T20:51:06.339Z,3.60
2018-09-26T20:53:36.122Z,4.07
2018-09-26T20:56:06.062Z,3.50
2018-09-26T20:58:35.892Z,3.27
2018-09-26T21:01:05.639Z,3.80
2018-09-26T21:03:35.822Z,3.90
2018-09-26T21:06:05.583Z,4.23
2018-09-26T21:08:35.388Z,3.80
2018-09-26T21:11:05.576Z,4.33
2018-09-26T21:13:35.384Z,4.50
2018-09-26T21:16:05.550Z,6.37
2018-09-26T21:18:35.308Z,7.90
2018-09-26T21:21:05.064Z,7.93
2018-09-26T21:23:34.883Z,8.47
2018-09-26T21:26:04.874Z,7.50
2018-09-26T21:28:34.651Z,6.80
2018-09-26T21:31:04.812Z,5.67
2018-09-26T21:33:34.782Z,5.37
2018-09-26T21:36:04.619Z,4.33
2018-09-26T21:38:34.535Z,4.27
2018-09-26T21:41:04.585Z,4.33
2018-09-26T21:43:34.626Z,4.70
2018-09-26T21:46:04.480Z,5.40
2018-09-26T21:48:34.357Z,4.73
2018-09-26T21:51:04.268Z,5.80
2018-09-26T21:53:34.413Z,4.77
2018-09-26T21:56:04.321Z,5.63
2018-09-26T21:58:34.468Z,6.13
2018-09-26T22:01:05.330Z,6.10
2018-09-26T22:03:35.658Z,5.67
2018-09-26T22:06:05.840Z,5.20
2018-09-26T22:08:36.059Z,4.40
2018-09-26T22:11:05.974Z,4.03
2018-09-26T22:13:35.767Z,3.90
2018-09-26T22:16:05.605Z,4.13
2018-09-26T22:18:35.485Z,3.40
2018-09-26T22:21:05.266Z,3.57
2018-09-26T22:23:35.224Z,4.20
2018-09-26T22:26:05.063Z,5.07
2018-09-26T22:28:35.139Z,4.50
2018-09-26T22:31:05.220Z,3.70
2018-09-26T22:33:34.954Z,4.00
2018-09-26T22:36:04.718Z,4.10
2018-09-26T22:38:34.651Z,3.90
2018-09-26T22:41:04.421Z,3.97
2018-09-26T22:43:34.227Z,3.93
2018-09-26T22:46:03.981Z,4.13
2018-09-26T22:48:33.906Z,4.60
2018-09-26T22:51:03.733Z,4.43
2018-09-26T22:53:33.463Z,4.83
2018-09-26T22:56:03.232Z,4.20
2018-09-26T22:58:33.176Z,4.47
2018-09-26T23:01:02.927Z,4.30
2018-09-26T23:03:32.798Z,4.20
2018-09-26T23:06:02.559Z,4.30
2018-09-26T23:08:32.482Z,4.27
2018-09-26T23:11:02.291Z,3.40
2018-09-26T23:13:32.319Z,3.23
2018-09-26T23:16:02.477Z,3.63
2018-09-26T23:18:32.336Z,3.43
2018-09-26T23:21:02.219Z,3.40
2018-09-26T23:23:32.226Z,3.20
2018-09-26T23:26:02.212Z,3.00
2018-09-26T23:28:32.382Z,3.50
2018-09-26T23:31:02.642Z,3.27
2018-09-26T23:33:32.456Z,3.30
2018-09-26T23:36:02.284Z,3.47
2018-09-26T23:38:32.027Z,3.43
2018-09-26T23:41:01.784Z,3.63
2018-09-26T23:43:31.642Z,3.37
2018-09-26T23:46:01.470Z,3.30
2018-09-26T23:48:31.218Z,3.23
2018-09-26T23:51:00.963Z,3.17
2018-09-26T23:53:30.826Z,3.00
2018-09-26T23:56:00.763Z,2.87
2018-09-26T23:58:30.526Z,3.30
